sensor_id;sensor_type;location;lat;lon;timestamp;temperature;humidity
240;DHT22;104;53.590;10.004;2023-02-03T00:05:21;3.50;96.80
240;DHT22;104;53.590;10.004;2023-02-03T00:12:49;3.60;96.80
240;DHT22;104;53.590;10.004;2023-02-03T00:15:17;3.60;96.80
240;DHT22;104;53.590;10.004;2023-02-03T00:30:04;3.70;96.80
240;DHT22;104;53.590;10.004;2023-02-03T00:35:02;3.60;96.80
240;DHT22;104;53.590;10.004;2023-02-03T01:21:45;4.50;96.80
240;DHT22;104;53.590;10.004;2023-02-03T01:24:12;4.50;96.80
240;DHT22;104;53.590;10.004;2023-02-03T01:26:40;4.50;96.80
240;DHT22;104;53.590;10.004;2023-02-03T01:29:10;4.50;96.80
240;DHT22;104;53.590;10.004;2023-02-03T01:31:39;4.50;96.80
240;DHT22;104;53.590;10.004;2023-02-03T01:34:07;4.60;96.80
240;DHT22;104;53.590;10.004;2023-02-03T01:36:37;4.50;96.80
240;DHT22;104;53.590;10.004;2023-02-03T01:39:06;4.60;96.80
240;DHT22;104;53.590;10.004;2023-02-03T01:41:35;4.60;96.80
240;DHT22;104;53.590;10.004;2023-02-03T01:47:03;4.60;96.80
240;DHT22;104;53.590;10.004;2023-02-03T01:49:33;4.60;96.80
240;DHT22;104;53.590;10.004;2023-02-03T01:52:02;4.60;96.80
240;DHT22;104;53.590;10.004;2023-02-03T01:54:32;4.60;96.80
240;DHT22;104;53.590;10.004;2023-02-03T01:57:06;4.60;96.80
240;DHT22;104;53.590;10.004;2023-02-03T01:59:36;4.60;96.80
240;DHT22;104;53.590;10.004;2023-02-03T02:02:04;4.60;96.80
240;DHT22;104;53.590;10.004;2023-02-03T02:04:35;4.60;96.80
240;DHT22;104;53.590;10.004;2023-02-03T02:07:06;4.60;96.80
240;DHT22;104;53.590;10.004;2023-02-03T02:09:35;4.70;96.80
240;DHT22;104;53.590;10.004;2023-02-03T02:12:02;4.70;96.80
240;DHT22;104;53.590;10.004;2023-02-03T02:14:29;4.70;96.80
240;DHT22;104;53.590;10.004;2023-02-03T02:19:54;4.70;96.80
240;DHT22;104;53.590;10.004;2023-02-03T02:22:29;4.70;96.80
240;DHT22;104;53.590;10.004;2023-02-03T02:25:26;4.70;96.80
240;DHT22;104;53.590;10.004;2023-02-03T02:34:13;4.70;96.80
240;DHT22;104;53.590;10.004;2023-02-03T02:36:46;4.70;96.80
240;DHT22;104;53.590;10.004;2023-02-03T02:39:22;4.80;96.80
240;DHT22;104;53.590;10.004;2023-02-03T02:41:55;4.80;96.80
240;DHT22;104;53.590;10.004;2023-02-03T02:44:27;4.80;96.80
240;DHT22;104;53.590;10.004;2023-02-03T02:46:58;4.90;96.80
240;DHT22;104;53.590;10.004;2023-02-03T02:49:31;4.90;96.80
240;DHT22;104;53.590;10.004;2023-02-03T02:52:03;4.90;96.80
240;DHT22;104;53.590;10.004;2023-02-03T02:54:32;4.90;96.80
240;DHT22;104;53.590;10.004;2023-02-03T02:57:01;4.90;96.80
240;DHT22;104;53.590;10.004;2023-02-03T03:01:56;5.00;96.80
240;DHT22;104;53.590;10.004;2023-02-03T03:06:58;5.10;96.80
240;DHT22;104;53.590;10.004;2023-02-03T03:09:29;5.10;96.80
240;DHT22;104;53.590;10.004;2023-02-03T03:12:05;5.10;96.80
240;DHT22;104;53.590;10.004;2023-02-03T03:14:33;5.10;96.80
240;DHT22;104;53.590;10.004;2023-02-03T03:17:05;5.10;96.80
240;DHT22;104;53.590;10.004;2023-02-03T03:19:36;5.10;96.80
240;DHT22;104;53.590;10.004;2023-02-03T03:22:08;5.10;96.80
240;DHT22;104;53.590;10.004;2023-02-03T03:24:40;5.10;96.80
240;DHT22;104;53.590;10.004;2023-02-03T03:27:11;5.20;96.80
240;DHT22;104;53.590;10.004;2023-02-03T03:29:42;5.20;96.80
240;DHT22;104;53.590;10.004;2023-02-03T03:32:10;5.30;96.80
240;DHT22;104;53.590;10.004;2023-02-03T03:34:38;5.30;96.80
240;DHT22;104;53.590;10.004;2023-02-03T03:37:10;5.30;96.80
240;DHT22;104;53.590;10.004;2023-02-03T03:39:44;5.30;96.80
240;DHT22;104;53.590;10.004;2023-02-03T03:42:18;5.30;96.80
240;DHT22;104;53.590;10.004;2023-02-03T03:44:51;5.40;96.80
240;DHT22;104;53.590;10.004;2023-02-03T03:47:25;5.40;96.80
240;DHT22;104;53.590;10.004;2023-02-03T03:49:53;5.40;96.80
240;DHT22;104;53.590;10.004;2023-02-03T03:52:28;5.40;96.80
240;DHT22;104;53.590;10.004;2023-02-03T03:54:56;5.40;96.80
240;DHT22;104;53.590;10.004;2023-02-03T03:57:29;5.40;96.80
240;DHT22;104;53.590;10.004;2023-02-03T03:59:58;5.40;96.80
240;DHT22;104;53.590;10.004;2023-02-03T04:02:26;5.50;96.80
240;DHT22;104;53.590;10.004;2023-02-03T04:04:54;5.50;96.80
240;DHT22;104;53.590;10.004;2023-02-03T04:07:36;5.50;96.80
240;DHT22;104;53.590;10.004;2023-02-03T04:10:19;5.50;96.80
240;DHT22;104;53.590;10.004;2023-02-03T04:12:47;5.50;96.80
240;DHT22;104;53.590;10.004;2023-02-03T04:15:14;5.60;96.80
240;DHT22;104;53.590;10.004;2023-02-03T04:20:10;5.60;96.80
240;DHT22;104;53.590;10.004;2023-02-03T04:22:38;5.60;96.80
240;DHT22;104;53.590;10.004;2023-02-03T04:25:06;5.60;96.80
240;DHT22;104;53.590;10.004;2023-02-03T04:27:33;5.60;96.80
240;DHT22;104;53.590;10.004;2023-02-03T04:30:00;5.60;96.80
240;DHT22;104;53.590;10.004;2023-02-03T04:32:27;5.60;96.80
240;DHT22;104;53.590;10.004;2023-02-03T04:34:55;5.60;96.80
240;DHT22;104;53.590;10.004;2023-02-03T04:37:22;5.60;96.80
240;DHT22;104;53.590;10.004;2023-02-03T04:39:52;5.60;96.80
240;DHT22;104;53.590;10.004;2023-02-03T04:42:20;5.60;96.80
240;DHT22;104;53.590;10.004;2023-02-03T04:44:47;5.60;96.80
240;DHT22;104;53.590;10.004;2023-02-03T04:47:15;5.60;96.80
240;DHT22;104;53.590;10.004;2023-02-03T04:52:09;5.70;96.80
240;DHT22;104;53.590;10.004;2023-02-03T04:54:36;5.70;96.80
240;DHT22;104;53.590;10.004;2023-02-03T04:57:05;5.70;96.80
240;DHT22;104;53.590;10.004;2023-02-03T04:59:32;5.70;96.80
240;DHT22;104;53.590;10.004;2023-02-03T05:02:01;5.60;96.80
240;DHT22;104;53.590;10.004;2023-02-03T05:04:28;5.70;96.80
240;DHT22;104;53.590;10.004;2023-02-03T05:09:22;5.60;96.80
240;DHT22;104;53.590;10.004;2023-02-03T05:14:18;5.60;96.80
240;DHT22;104;53.590;10.004;2023-02-03T05:16:45;5.70;96.80
240;DHT22;104;53.590;10.004;2023-02-03T05:19:13;5.70;96.80
240;DHT22;104;53.590;10.004;2023-02-03T05:21:40;5.70;96.80
240;DHT22;104;53.590;10.004;2023-02-03T05:24:07;5.70;96.80
240;DHT22;104;53.590;10.004;2023-02-03T05:26:34;5.70;96.80
240;DHT22;104;53.590;10.004;2023-02-03T05:29:02;5.70;96.80
240;DHT22;104;53.590;10.004;2023-02-03T05:31:30;5.70;96.80
240;DHT22;104;53.590;10.004;2023-02-03T05:33:58;5.70;96.80
240;DHT22;104;53.590;10.004;2023-02-03T05:44:04;5.70;96.80
240;DHT22;104;53.590;10.004;2023-02-03T05:46:32;5.80;96.80
240;DHT22;104;53.590;10.004;2023-02-03T05:51:26;5.80;96.80
240;DHT22;104;53.590;10.004;2023-02-03T05:56:20;5.80;96.80
240;DHT22;104;53.590;10.004;2023-02-03T05:58:47;5.80;96.80
240;DHT22;104;53.590;10.004;2023-02-03T06:03:45;5.80;96.80
240;DHT22;104;53.590;10.004;2023-02-03T06:06:12;5.80;96.80
240;DHT22;104;53.590;10.004;2023-02-03T06:16:01;5.80;96.80
240;DHT22;104;53.590;10.004;2023-02-03T06:18:28;5.80;96.80
240;DHT22;104;53.590;10.004;2023-02-03T06:23:23;5.80;96.80
240;DHT22;104;53.590;10.004;2023-02-03T06:25:51;5.80;96.80
240;DHT22;104;53.590;10.004;2023-02-03T06:30:48;5.80;96.80
240;DHT22;104;53.590;10.004;2023-02-03T06:33:16;5.80;96.80
240;DHT22;104;53.590;10.004;2023-02-03T06:38:11;5.80;96.80
240;DHT22;104;53.590;10.004;2023-02-03T06:40:38;5.70;96.80
240;DHT22;104;53.590;10.004;2023-02-03T06:45:33;5.70;96.80
240;DHT22;104;53.590;10.004;2023-02-03T06:52:54;5.70;96.80
240;DHT22;104;53.590;10.004;2023-02-03T06:55:23;5.70;96.80
240;DHT22;104;53.590;10.004;2023-02-03T07:00:18;5.70;96.80
240;DHT22;104;53.590;10.004;2023-02-03T07:10:08;5.70;96.80
240;DHT22;104;53.590;10.004;2023-02-03T08:09:17;6.20;96.80
240;DHT22;104;53.590;10.004;2023-02-03T08:16:38;6.20;96.80
240;DHT22;104;53.590;10.004;2023-02-03T08:21:34;6.20;96.80
240;DHT22;104;53.590;10.004;2023-02-03T08:24:01;6.30;96.80
240;DHT22;104;53.590;10.004;2023-02-03T08:26:28;6.30;96.80
240;DHT22;104;53.590;10.004;2023-02-03T08:33:53;6.30;96.80
240;DHT22;104;53.590;10.004;2023-02-03T08:36:20;6.40;96.80
240;DHT22;104;53.590;10.004;2023-02-03T08:41:16;6.40;96.80
240;DHT22;104;53.590;10.004;2023-02-03T08:43:44;6.40;96.80
240;DHT22;104;53.590;10.004;2023-02-03T08:46:12;6.40;96.80
240;DHT22;104;53.590;10.004;2023-02-03T08:48:39;6.40;96.80
240;DHT22;104;53.590;10.004;2023-02-03T08:51:15;6.50;96.80
240;DHT22;104;53.590;10.004;2023-02-03T08:53:43;6.50;96.80
240;DHT22;104;53.590;10.004;2023-02-03T08:56:11;6.50;96.80
240;DHT22;104;53.590;10.004;2023-02-03T08:58:38;6.50;96.80
240;DHT22;104;53.590;10.004;2023-02-03T09:01:07;6.50;96.80
240;DHT22;104;53.590;10.004;2023-02-03T09:03:35;6.50;96.80
240;DHT22;104;53.590;10.004;2023-02-03T09:08:32;6.50;96.80
240;DHT22;104;53.590;10.004;2023-02-03T09:13:28;6.50;96.80
240;DHT22;104;53.590;10.004;2023-02-03T09:15:59;6.60;96.80
240;DHT22;104;53.590;10.004;2023-02-03T09:20:59;6.60;96.80
240;DHT22;104;53.590;10.004;2023-02-03T09:30:50;6.60;96.80
240;DHT22;104;53.590;10.004;2023-02-03T09:35:51;6.60;96.80
240;DHT22;104;53.590;10.004;2023-02-03T09:40:48;6.60;96.80
240;DHT22;104;53.590;10.004;2023-02-03T09:43:28;6.60;96.80
240;DHT22;104;53.590;10.004;2023-02-03T09:48:35;6.50;96.80
240;DHT22;104;53.590;10.004;2023-02-03T09:56:00;6.50;96.80
240;DHT22;104;53.590;10.004;2023-02-03T10:03:31;6.40;96.80
240;DHT22;104;53.590;10.004;2023-02-03T10:18:53;7.00;96.80
240;DHT22;104;53.590;10.004;2023-02-03T10:23:57;6.90;96.80
240;DHT22;104;53.590;10.004;2023-02-03T10:28:54;6.90;96.80
240;DHT22;104;53.590;10.004;2023-02-03T10:31:26;6.80;96.80
240;DHT22;104;53.590;10.004;2023-02-03T10:49:12;7.20;96.80
240;DHT22;104;53.590;10.004;2023-02-03T10:54:27;7.40;96.80
240;DHT22;104;53.590;10.004;2023-02-03T10:57:02;7.50;96.80
240;DHT22;104;53.590;10.004;2023-02-03T11:01:58;7.50;96.80
240;DHT22;104;53.590;10.004;2023-02-03T11:07:00;7.50;96.80
240;DHT22;104;53.590;10.004;2023-02-03T11:09:32;7.50;96.80
240;DHT22;104;53.590;10.004;2023-02-03T11:12:06;7.40;96.80
240;DHT22;104;53.590;10.004;2023-02-03T11:14:40;7.40;96.80
240;DHT22;104;53.590;10.004;2023-02-03T11:17:15;7.30;96.80
240;DHT22;104;53.590;10.004;2023-02-03T11:27:21;7.50;96.80
240;DHT22;104;53.590;10.004;2023-02-03T11:50:15;7.10;96.80
240;DHT22;104;53.590;10.004;2023-02-03T11:55:21;7.10;96.80
240;DHT22;104;53.590;10.004;2023-02-03T11:57:57;7.00;96.80
240;DHT22;104;53.590;10.004;2023-02-03T12:00:35;7.10;96.80
240;DHT22;104;53.590;10.004;2023-02-03T12:03:39;7.10;96.80
240;DHT22;104;53.590;10.004;2023-02-03T12:09:21;7.20;96.80
240;DHT22;104;53.590;10.004;2023-02-03T12:12:29;7.30;96.80
240;DHT22;104;53.590;10.004;2023-02-03T12:15:09;7.40;96.80
240;DHT22;104;53.590;10.004;2023-02-03T12:20:29;7.40;96.80
240;DHT22;104;53.590;10.004;2023-02-03T12:23:04;7.40;96.80
240;DHT22;104;53.590;10.004;2023-02-03T12:28:20;7.40;96.80
240;DHT22;104;53.590;10.004;2023-02-03T12:30:51;7.40;96.80
240;DHT22;104;53.590;10.004;2023-02-03T12:33:25;7.40;96.80
240;DHT22;104;53.590;10.004;2023-02-03T12:35:56;7.30;96.80
240;DHT22;104;53.590;10.004;2023-02-03T12:38:30;7.30;96.80
240;DHT22;104;53.590;10.004;2023-02-03T12:41:06;7.40;96.80
240;DHT22;104;53.590;10.004;2023-02-03T12:43:37;7.40;96.80
240;DHT22;104;53.590;10.004;2023-02-03T12:46:10;7.40;96.80
240;DHT22;104;53.590;10.004;2023-02-03T12:51:13;7.30;96.80
240;DHT22;104;53.590;10.004;2023-02-03T12:56:21;7.30;96.80
240;DHT22;104;53.590;10.004;2023-02-03T12:58:53;7.20;96.80
240;DHT22;104;53.590;10.004;2023-02-03T13:01:23;7.30;96.80
240;DHT22;104;53.590;10.004;2023-02-03T13:11:27;7.30;96.80
240;DHT22;104;53.590;10.004;2023-02-03T13:21:23;7.40;96.80
240;DHT22;104;53.590;10.004;2023-02-03T13:23:50;7.40;96.80
240;DHT22;104;53.590;10.004;2023-02-03T13:26:44;7.30;96.80
240;DHT22;104;53.590;10.004;2023-02-03T13:29:36;7.30;96.80
240;DHT22;104;53.590;10.004;2023-02-03T13:35:26;7.30;96.80
240;DHT22;104;53.590;10.004;2023-02-03T13:38:30;7.30;96.80
240;DHT22;104;53.590;10.004;2023-02-03T13:41:05;7.30;96.80
240;DHT22;104;53.590;10.004;2023-02-03T13:43:36;7.30;96.80
240;DHT22;104;53.590;10.004;2023-02-03T13:46:06;7.30;96.80
240;DHT22;104;53.590;10.004;2023-02-03T13:48:34;7.30;96.80
240;DHT22;104;53.590;10.004;2023-02-03T13:51:04;7.40;96.80
240;DHT22;104;53.590;10.004;2023-02-03T13:53:35;7.40;96.80
240;DHT22;104;53.590;10.004;2023-02-03T13:56:05;7.40;96.80
